Terminal Aerodrome Forecast
Issued by NWS

Current Version | Previous Version | Text Only | Print | Product List | Glossary Off
Versions: 1 2 3 4 5 6 7 8 9 10 11 12 13 14 15 16 17 18 19 20

000
FTUS41 KILN 272334
TAFLUK
TAF
KLUK 272334Z 2800/2824 00000KT P6SM FEW060
     FM280400 00000KT 3SM BR SCT250
     FM280700 00000KT 1SM BR SCT250
     FM281300 12004KT P6SM SCT250=

USA.gov is the U.S. government's official web portal to all federal, state and local government web resources and services.